Time;durP1;ratioP1;P1;durP2;ratioP2;P2;SDS_P1;SDS_P2;PMS_P1;PMS_P2;Temp;Humidity;BMP_temperature;BMP_pressure;BME280_temperature;BME280_humidity;BME280_pressure;Samples;Min_cycle;Max_cycle;Signal;HPM_P1;HPM_P2
2022/05/12 00:01:25;;;;;;;2.10;1.40;;;18.60;37.40;;;;;;4197613;28;20266;-69
2022/05/12 00:03:25;;;;;;;2.17;1.40;;;18.70;37.10;;;;;;4197555;28;20183;-69
2022/05/12 00:05:26;;;;;;;1.93;1.50;;;18.70;36.80;;;;;;4196611;28;20187;-69
2022/05/12 00:07:26;;;;;;;3.77;1.57;;;18.80;37.10;;;;;;4197138;28;20164;-69
2022/05/12 00:09:27;;;;;;;3.73;1.60;;;18.70;38.50;;;;;;4195884;28;20176;-69
2022/05/12 00:11:30;;;;;;;4.70;1.47;;;18.60;38.60;;;;;;4181166;28;20210;-69
2022/05/12 00:13:31;;;;;;;2.63;1.10;;;18.70;36.90;;;;;;4180832;28;20553;-69
2022/05/12 00:15:33;;;;;;;2.13;1.30;;;18.60;36.90;;;;;;4180155;28;20177;-69
2022/05/12 00:17:34;;;;;;;6.67;1.57;;;18.70;36.50;;;;;;4180422;28;20184;-69
2022/05/12 00:19:34;;;;;;;4.63;1.40;;;18.70;36.60;;;;;;4180796;28;20180;-69
2022/05/12 00:21:36;;;;;;;4.47;1.30;;;18.70;36.60;;;;;;4180674;28;20212;-69
2022/05/12 00:23:36;;;;;;;2.10;1.20;;;18.70;37.00;;;;;;4180820;28;20564;-69
2022/05/12 00:25:37;;;;;;;2.43;1.37;;;18.60;37.00;;;;;;4180065;28;20204;-69
2022/05/12 00:27:37;;;;;;;2.17;1.40;;;18.70;36.60;;;;;;4180571;28;20180;-69
2022/05/12 00:29:38;;;;;;;1.30;1.17;;;18.60;36.70;;;;;;4180516;28;20510;-69
2022/05/12 00:31:41;;;;;;;2.60;1.30;;;18.60;36.70;;;;;;4180341;28;20207;-69
2022/05/12 00:33:42;;;;;;;2.40;1.60;;;18.60;36.70;;;;;;4180529;28;20189;-68
2022/05/12 00:35:44;;;;;;;3.30;1.70;;;18.50;37.00;;;;;;4180267;28;20176;-69
2022/05/12 00:37:44;;;;;;;3.33;1.30;;;18.40;37.50;;;;;;4180411;28;20188;-69
2022/05/12 00:39:45;;;;;;;3.27;1.30;;;18.30;37.80;;;;;;4180511;28;20183;-69
2022/05/12 00:41:45;;;;;;;2.40;1.37;;;18.30;38.30;;;;;;4180532;28;20220;-69
2022/05/12 00:43:50;;;;;;;3.47;1.47;;;18.20;38.60;;;;;;4180219;28;20176;-69
2022/05/12 00:45:51;;;;;;;2.47;1.17;;;18.10;39.00;;;;;;4179899;28;20679;-69
2022/05/12 00:47:52;;;;;;;1.70;1.20;;;18.10;38.90;;;;;;4180306;28;20183;-69
2022/05/12 00:49:53;;;;;;;2.23;1.60;;;18.10;39.20;;;;;;4189677;28;20556;-69
2022/05/12 00:51:58;;;;;;;3.50;1.40;;;18.00;39.60;;;;;;4196701;28;20184;-69
2022/05/12 00:54:02;;;;;;;4.17;1.57;;;18.00;40.10;;;;;;4196678;28;20280;-69
2022/05/12 00:56:06;;;;;;;2.17;1.43;;;18.00;40.40;;;;;;4196188;28;20618;-68
2022/05/12 00:58:10;;;;;;;4.97;1.23;;;17.90;40.90;;;;;;4196604;28;20175;-69
2022/05/12 01:00:13;;;;;;;2.30;1.50;;;17.80;41.10;;;;;;4196612;28;20580;-69
2022/05/12 01:02:19;;;;;;;3.80;2.23;;;17.70;41.80;;;;;;4196663;28;20276;-69
2022/05/12 01:04:21;;;;;;;4.87;2.10;;;17.60;42.10;;;;;;4196593;28;20184;-69
2022/05/12 01:06:21;;;;;;;3.27;1.53;;;17.70;42.20;;;;;;4195828;28;20761;-69
2022/05/12 01:08:22;;;;;;;3.87;2.13;;;17.70;42.50;;;;;;4196534;28;20172;-69
2022/05/12 01:10:25;;;;;;;3.17;1.60;;;17.70;42.60;;;;;;4196363;28;20705;-69
2022/05/12 01:12:25;;;;;;;3.57;1.50;;;17.70;42.90;;;;;;4196648;28;20190;-69
2022/05/12 01:14:26;;;;;;;8.87;2.50;;;17.70;43.10;;;;;;4196368;28;20816;-69
2022/05/12 01:16:37;;;;;;;5.73;2.10;;;17.70;43.00;;;;;;4195767;28;20234;-69
2022/05/12 01:18:39;;;;;;;4.57;2.03;;;17.60;43.20;;;;;;4196425;28;20228;-69
2022/05/12 01:20:40;;;;;;;3.87;2.33;;;17.60;43.40;;;;;;4196032;28;20216;-69
2022/05/12 01:22:50;;;;;;;4.63;1.63;;;17.60;43.60;;;;;;4196373;28;20222;-68
2022/05/12 01:24:50;;;;;;;2.33;1.50;;;17.60;43.70;;;;;;4196185;28;20167;-69
2022/05/12 01:26:51;;;;;;;2.57;1.50;;;17.50;44.10;;;;;;4195361;28;20203;-69
2022/05/12 01:28:51;;;;;;;2.17;1.40;;;17.50;44.30;;;;;;4196308;28;20195;-69
2022/05/12 01:30:52;;;;;;;3.47;1.70;;;17.40;44.40;;;;;;4195875;28;20200;-69
2022/05/12 01:32:53;;;;;;;2.90;1.40;;;17.30;44.70;;;;;;4194726;28;20705;-69
2022/05/12 01:34:54;;;;;;;1.90;1.50;;;17.30;45.10;;;;;;4196059;28;20259;-69
2022/05/12 01:36:55;;;;;;;2.33;1.83;;;17.20;45.40;;;;;;4195398;28;20179;-69
2022/05/12 01:38:55;;;;;;;2.63;1.73;;;17.30;45.50;;;;;;4196023;28;20280;-69
2022/05/12 01:40:56;;;;;;;3.20;1.60;;;17.10;46.10;;;;;;4195862;28;20200;-69
2022/05/12 01:42:57;;;;;;;2.93;1.73;;;17.00;46.60;;;;;;4195903;28;20194;-69
2022/05/12 01:44:58;;;;;;;2.43;1.40;;;17.00;46.70;;;;;;4195770;28;20172;-69
2022/05/12 01:46:58;;;;;;;2.03;1.60;;;17.00;46.70;;;;;;4195293;28;20837;-69
2022/05/12 01:48:59;;;;;;;2.47;2.00;;;17.00;46.60;;;;;;4195827;28;20951;-69
2022/05/12 01:51:00;;;;;;;2.70;1.67;;;16.90;47.40;;;;;;4195785;28;20206;-69
2022/05/12 01:53:03;;;;;;;2.87;1.53;;;16.80;47.50;;;;;;4195594;28;20254;-69
2022/05/12 01:55:04;;;;;;;6.97;1.87;;;16.80;47.60;;;;;;4195474;28;20167;-69
2022/05/12 01:57:05;;;;;;;3.50;1.50;;;16.80;47.80;;;;;;4195295;28;20184;-69
2022/05/12 01:59:05;;;;;;;3.03;1.63;;;16.70;48.20;;;;;;4195580;28;20704;-69
2022/05/12 02:01:06;;;;;;;1.67;1.57;;;16.60;48.60;;;;;;4195885;28;20208;-69
2022/05/12 02:03:07;;;;;;;2.37;1.70;;;16.60;48.90;;;;;;4195768;28;20954;-69
2022/05/12 02:05:10;;;;;;;3.33;1.80;;;16.60;49.10;;;;;;4195476;28;20179;-69
2022/05/12 02:07:10;;;;;;;4.30;1.80;;;16.60;49.30;;;;;;4195227;28;20818;-69
2022/05/12 02:09:11;;;;;;;2.90;1.60;;;16.50;49.40;;;;;;4195434;28;20214;-69
2022/05/12 02:11:12;;;;;;;4.00;1.70;;;16.60;49.60;;;;;;4195628;28;20196;-69
2022/05/12 02:13:12;;;;;;;2.90;1.90;;;16.50;49.80;;;;;;4188437;28;20210;-69
2022/05/12 02:15:14;;;;;;;2.70;2.00;;;16.50;50.00;;;;;;4193907;28;20738;-69
2022/05/12 02:17:14;;;;;;;2.57;1.47;;;16.50;50.00;;;;;;4194453;28;20816;-69
2022/05/12 02:19:15;;;;;;;3.70;1.80;;;16.50;50.00;;;;;;4195463;28;20183;-69
2022/05/12 02:21:15;;;;;;;2.97;2.00;;;16.50;50.50;;;;;;4194606;28;20581;-69
2022/05/12 02:23:16;;;;;;;2.53;1.60;;;16.40;50.80;;;;;;4195296;28;20548;-69
2022/05/12 02:25:18;;;;;;;2.17;1.70;;;16.20;51.30;;;;;;4195542;28;20183;-69
2022/05/12 02:27:20;;;;;;;2.67;1.90;;;16.20;51.60;;;;;;4193963;28;20207;-69
2022/05/12 02:29:20;;;;;;;2.23;1.80;;;16.20;51.70;;;;;;4194270;28;20307;-69
2022/05/12 02:31:21;;;;;;;2.90;2.07;;;16.20;51.70;;;;;;4195422;28;20208;-69
2022/05/12 02:33:21;;;;;;;2.83;2.07;;;16.20;51.90;;;;;;4196429;28;20229;-69
2022/05/12 02:35:23;;;;;;;5.87;1.70;;;16.20;52.00;;;;;;4195571;28;20187;-69
2022/05/12 02:37:24;;;;;;;3.90;2.00;;;16.10;52.20;;;;;;4195691;28;20257;-69
2022/05/12 02:39:24;;;;;;;5.10;1.93;;;16.10;52.50;;;;;;4195444;28;20180;-69
2022/05/12 02:41:25;;;;;;;2.90;1.80;;;16.00;52.60;;;;;;4195433;28;20199;-69
2022/05/12 02:43:25;;;;;;;3.77;1.73;;;16.00;53.30;;;;;;4195423;28;20178;-69
2022/05/12 02:45:28;;;;;;;5.53;2.07;;;16.00;53.20;;;;;;4195044;28;20172;-69
2022/05/12 02:47:29;;;;;;;6.10;2.40;;;15.90;53.10;;;;;;4193937;28;20183;-69
2022/05/12 02:49:30;;;;;;;2.33;1.67;;;16.00;53.50;;;;;;4195626;28;20677;-69
2022/05/12 02:51:30;;;;;;;3.30;1.57;;;15.90;53.40;;;;;;4195417;28;20206;-68
2022/05/12 02:53:31;;;;;;;2.63;1.70;;;15.80;53.80;;;;;;4195306;28;20179;-69
2022/05/12 02:55:32;;;;;;;3.83;1.70;;;15.90;54.30;;;;;;4195002;28;20547;-70
2022/05/12 02:57:33;;;;;;;4.03;1.70;;;15.80;54.20;;;;;;4195327;28;20176;-70
2022/05/12 02:59:33;;;;;;;3.80;1.90;;;15.80;54.40;;;;;;4195603;28;20532;-70
2022/05/12 03:01:34;;;;;;;3.43;1.80;;;15.70;54.60;;;;;;4195577;28;20270;-70
2022/05/12 03:03:35;;;;;;;2.00;1.57;;;15.80;54.50;;;;;;4195544;28;20182;-69
2022/05/12 03:05:36;;;;;;;2.63;1.70;;;15.80;54.30;;;;;;4194742;28;20191;-70
2022/05/12 03:07:37;;;;;;;2.57;1.70;;;15.70;55.20;;;;;;4195509;28;20172;-70
2022/05/12 03:09:38;;;;;;;4.03;1.83;;;15.80;54.80;;;;;;4195431;28;20234;-69
2022/05/12 03:11:39;;;;;;;2.03;1.70;;;15.80;54.60;;;;;;4195323;28;20206;-69
2022/05/12 03:13:39;;;;;;;3.83;1.93;;;15.90;54.50;;;;;;4195255;28;20233;-69
2022/05/12 03:15:40;;;;;;;2.67;1.90;;;15.80;54.70;;;;;;4194655;28;20183;-69
2022/05/12 03:17:43;;;;;;;2.50;2.00;;;15.70;55.40;;;;;;4195507;28;20528;-70
2022/05/12 03:19:44;;;;;;;3.67;1.83;;;15.70;55.50;;;;;;4195278;28;20186;-71
2022/05/12 03:21:46;;;;;;;3.97;2.10;;;15.60;55.90;;;;;;4194882;28;20238;-70
2022/05/12 03:23:47;;;;;;;1.70;1.60;;;15.60;56.40;;;;;;4194003;28;20186;-70
2022/05/12 03:25:49;;;;;;;2.60;1.70;;;15.60;56.50;;;;;;4194714;28;20224;-70
2022/05/12 03:27:50;;;;;;;4.20;2.00;;;15.40;57.50;;;;;;4195231;28;20753;-69
2022/05/12 03:29:50;;;;;;;3.17;1.97;;;15.30;57.90;;;;;;4195236;28;20183;-69
2022/05/12 03:31:51;;;;;;;3.33;1.73;;;15.30;58.20;;;;;;4195536;28;20192;-70
2022/05/12 03:33:51;;;;;;;2.97;1.97;;;15.20;58.50;;;;;;4197057;28;20175;-70
2022/05/12 03:35:52;;;;;;;2.93;1.83;;;15.30;58.20;;;;;;4197807;28;20180;-69
2022/05/12 03:37:52;;;;;;;2.17;1.97;;;15.30;58.50;;;;;;4198368;28;20205;-70
2022/05/12 03:39:53;;;;;;;2.97;2.00;;;15.20;58.80;;;;;;4198582;28;20187;-69
2022/05/12 03:41:53;;;;;;;2.97;2.10;;;15.10;59.40;;;;;;4198843;28;20183;-70
2022/05/12 03:46:13;;;;;;;5.17;2.40;;;15.00;60.00;;;;;;4197798;28;20234;-68
2022/05/12 03:48:14;;;;;;;3.77;2.07;;;15.00;60.30;;;;;;4198013;28;20179;-69
2022/05/12 03:50:20;;;;;;;2.60;1.90;;;15.00;60.50;;;;;;4197827;28;20206;-69
2022/05/12 03:52:21;;;;;;;4.07;2.70;;;15.00;60.50;;;;;;4198290;28;20175;-70
2022/05/12 03:54:21;;;;;;;1.70;1.60;;;14.90;61.00;;;;;;4198007;28;20181;-70
2022/05/12 03:56:22;;;;;;;2.67;1.97;;;14.90;61.10;;;;;;4197052;28;20596;-69
2022/05/12 03:58:24;;;;;;;4.67;1.87;;;15.00;60.70;;;;;;4197398;28;20250;-69
2022/05/12 04:00:27;;;;;;;2.90;2.10;;;15.00;60.70;;;;;;4197399;28;20209;-70
2022/05/12 04:02:28;;;;;;;4.13;2.00;;;15.00;61.10;;;;;;4197371;28;20168;-70
2022/05/12 04:04:29;;;;;;;3.03;2.10;;;15.00;61.30;;;;;;4197778;28;20272;-70
2022/05/12 04:06:30;;;;;;;6.37;2.73;;;15.00;61.70;;;;;;4197475;28;20207;-70
2022/05/12 04:08:30;;;;;;;6.10;2.27;;;14.90;61.80;;;;;;4198036;28;20176;-69
2022/05/12 04:10:32;;;;;;;4.33;2.07;;;14.90;62.20;;;;;;4198403;28;20257;-69
2022/05/12 04:12:33;;;;;;;2.27;1.87;;;14.80;62.40;;;;;;4198923;28;20195;-69
2022/05/12 04:14:33;;;;;;;4.57;2.23;;;14.80;62.60;;;;;;4198522;28;20233;-69
2022/05/12 04:16:36;;;;;;;3.53;2.30;;;14.80;62.90;;;;;;4197757;28;20284;-70
2022/05/12 04:18:37;;;;;;;4.40;2.27;;;14.70;63.10;;;;;;4200203;28;20184;-69
2022/05/12 04:20:38;;;;;;;4.83;2.30;;;14.60;63.70;;;;;;4198675;28;20218;-69
2022/05/12 04:22:45;;;;;;;5.37;2.33;;;14.60;64.20;;;;;;4199080;28;20179;-69
2022/05/12 04:24:46;;;;;;;3.23;2.33;;;14.70;64.00;;;;;;4196236;28;20223;-70
2022/05/12 04:26:46;;;;;;;5.20;2.30;;;14.70;64.30;;;;;;4198105;28;20261;-69
2022/05/12 04:28:47;;;;;;;5.40;2.17;;;14.70;65.10;;;;;;4199854;28;20180;-69
2022/05/12 04:30:47;;;;;;;8.47;2.80;;;14.70;64.20;;;;;;4200565;28;20226;-70
2022/05/12 04:32:48;;;;;;;3.13;1.80;;;14.70;64.20;;;;;;4200694;28;20208;-70
2022/05/12 04:37:08;;;;;;;7.70;2.50;;;14.80;64.20;;;;;;4199621;28;20182;-69
2022/05/12 04:39:08;;;;;;;5.10;2.20;;;14.80;64.10;;;;;;4198803;28;20211;-70
2022/05/12 04:41:09;;;;;;;5.77;2.23;;;14.90;63.80;;;;;;4196344;28;20270;-70
2022/05/12 04:43:09;;;;;;;5.53;2.40;;;14.90;64.10;;;;;;4197350;28;20313;-70
2022/05/12 04:45:11;;;;;;;5.90;2.70;;;14.90;64.00;;;;;;4196747;28;20188;-71
2022/05/12 04:47:11;;;;;;;6.20;2.80;;;14.90;63.80;;;;;;4197237;28;20219;-70
2022/05/12 04:49:16;;;;;;;4.37;2.30;;;14.90;63.80;;;;;;4197112;28;20180;-70
2022/05/12 04:51:16;;;;;;;3.63;2.20;;;14.90;64.10;;;;;;4196900;28;20236;-70
2022/05/12 04:53:17;;;;;;;5.33;2.67;;;15.00;64.00;;;;;;4196635;28;20543;-70
2022/05/12 04:55:18;;;;;;;5.53;2.57;;;15.00;64.40;;;;;;4196332;28;20168;-70
2022/05/12 04:57:18;;;;;;;13.47;2.90;;;15.00;64.50;;;;;;4195889;28;20183;-70
2022/05/12 04:59:19;;;;;;;7.60;2.70;;;15.00;64.20;;;;;;4196611;28;20211;-70
2022/05/12 05:01:19;;;;;;;6.07;2.63;;;15.00;64.00;;;;;;4195302;28;20311;-70
2022/05/12 05:03:20;;;;;;;3.30;2.00;;;15.00;64.40;;;;;;4196395;28;20178;-70
2022/05/12 05:05:21;;;;;;;10.30;2.57;;;15.10;64.00;;;;;;4195654;28;20179;-70
2022/05/12 05:07:22;;;;;;;4.17;2.33;;;15.20;63.80;;;;;;4196152;28;20218;-70
2022/05/12 05:09:23;;;;;;;4.27;2.77;;;15.20;63.80;;;;;;4196233;28;20194;-70
2022/05/12 05:11:24;;;;;;;7.57;2.87;;;15.20;63.80;;;;;;4196300;28;20199;-70
2022/05/12 05:13:24;;;;;;;3.30;2.30;;;15.30;63.50;;;;;;4196372;28;20180;-70
2022/05/12 05:15:25;;;;;;;6.07;2.20;;;15.30;63.70;;;;;;4195859;28;20176;-70
2022/05/12 05:17:27;;;;;;;4.77;2.30;;;15.30;63.70;;;;;;4196434;28;20168;-70
2022/05/12 05:19:28;;;;;;;10.60;3.17;;;15.30;64.30;;;;;;4196464;28;20191;-70
2022/05/12 05:21:28;;;;;;;3.53;2.70;;;15.30;64.50;;;;;;4196365;28;20273;-70
2022/05/12 05:23:29;;;;;;;4.37;2.63;;;15.30;65.10;;;;;;4196467;28;20259;-70
2022/05/12 05:25:31;;;;;;;3.40;2.63;;;15.40;64.20;;;;;;4196215;28;20188;-70
2022/05/12 05:27:31;;;;;;;4.10;2.30;;;15.50;64.30;;;;;;4198510;28;20254;-70
2022/05/12 05:29:32;;;;;;;8.67;2.87;;;15.60;63.90;;;;;;4196366;28;20673;-70
2022/05/12 05:31:37;;;;;;;8.50;2.37;;;15.60;64.00;;;;;;4196485;28;20341;-70
2022/05/12 05:33:37;;;;;;;5.80;2.67;;;15.70;63.50;;;;;;4196579;28;20172;-70
2022/05/12 05:35:38;;;;;;;6.77;2.53;;;15.70;63.80;;;;;;4195924;28;20262;-70
2022/05/12 05:37:40;;;;;;;5.00;2.40;;;15.70;64.30;;;;;;4196274;28;20176;-70
2022/05/12 05:39:40;;;;;;;3.17;2.23;;;15.80;63.90;;;;;;4196388;28;20172;-70
2022/05/12 05:41:41;;;;;;;8.37;2.70;;;15.90;63.40;;;;;;4196570;28;20195;-70
2022/05/12 05:43:41;;;;;;;3.40;2.17;;;15.90;63.80;;;;;;4196182;28;20172;-70
2022/05/12 05:45:43;;;;;;;5.43;2.30;;;15.90;63.90;;;;;;4195766;28;20583;-70
2022/05/12 05:47:54;;;;;;;3.37;2.33;;;16.00;63.20;;;;;;4196157;28;20267;-70
2022/05/12 05:49:54;;;;;;;3.87;2.37;;;16.10;62.10;;;;;;4196079;28;20631;-70
2022/05/12 05:54:34;;;;;;;3.53;2.33;;;16.20;60.90;;;;;;4177217;28;20191;-70
2022/05/12 05:56:35;;;;;;;4.60;2.13;;;16.30;61.40;;;;;;4186224;28;20191;-70
2022/05/12 05:58:35;;;;;;;5.17;2.37;;;16.40;60.70;;;;;;4195859;28;20274;-70
2022/05/12 06:00:37;;;;;;;6.93;2.60;;;16.50;61.60;;;;;;4195653;28;20208;-70
2022/05/12 06:02:38;;;;;;;4.30;2.40;;;16.50;60.60;;;;;;4195843;28;20263;-70
2022/05/12 06:04:39;;;;;;;7.33;2.97;;;16.50;61.10;;;;;;4195888;28;20239;-70
2022/05/12 06:06:42;;;;;;;5.17;2.30;;;16.70;61.00;;;;;;4195146;28;20977;-70
2022/05/12 06:08:42;;;;;;;3.47;2.00;;;16.80;60.50;;;;;;4195298;28;20179;-70
2022/05/12 06:10:44;;;;;;;6.43;2.70;;;16.80;59.70;;;;;;4195398;28;20199;-70
2022/05/12 06:12:45;;;;;;;4.73;2.40;;;16.90;59.70;;;;;;4195489;28;20168;-70
2022/05/12 06:14:46;;;;;;;10.13;3.17;;;17.00;59.60;;;;;;4195510;28;20650;-70
2022/05/12 06:16:47;;;;;;;10.40;2.47;;;17.10;59.40;;;;;;4194972;28;20232;-70
2022/05/12 06:18:48;;;;;;;11.43;3.13;;;17.20;59.20;;;;;;4195801;28;20178;-70
2022/05/12 06:20:50;;;;;;;3.00;2.40;;;17.20;59.10;;;;;;4194994;28;20261;-70
2022/05/12 06:22:51;;;;;;;7.73;3.30;;;17.10;59.30;;;;;;4195426;28;20610;-70
2022/05/12 06:24:52;;;;;;;9.27;3.93;;;17.10;58.30;;;;;;4195465;28;20180;-70
2022/05/12 06:26:52;;;;;;;6.33;2.70;;;17.00;58.30;;;;;;4195043;28;20218;-70
2022/05/12 06:28:53;;;;;;;14.33;4.27;;;17.00;58.70;;;;;;4195831;28;20251;-70
2022/05/12 06:30:53;;;;;;;11.33;4.33;;;17.00;59.20;;;;;;4195757;28;20199;-70
2022/05/12 06:32:56;;;;;;;9.37;3.67;;;17.00;59.60;;;;;;4195007;28;20171;-70
2022/05/12 06:34:56;;;;;;;6.60;2.50;;;17.10;59.60;;;;;;4195034;28;20604;-70
2022/05/12 06:36:59;;;;;;;3.13;2.50;;;17.30;58.40;;;;;;4194440;28;20237;-70
2022/05/12 06:38:59;;;;;;;5.27;2.53;;;17.50;57.70;;;;;;4195166;28;20175;-69
2022/05/12 06:41:01;;;;;;;5.20;2.30;;;17.50;57.40;;;;;;4195221;28;20242;-69
2022/05/12 06:43:06;;;;;;;3.33;2.20;;;17.50;57.00;;;;;;4194953;28;20256;-70
2022/05/12 06:45:08;;;;;;;4.50;2.40;;;17.30;57.90;;;;;;4194736;28;20182;-70
2022/05/12 06:47:10;;;;;;;8.13;3.03;;;17.30;58.70;;;;;;4210146;28;20222;-69
2022/05/12 06:49:10;;;;;;;4.33;2.30;;;17.40;58.50;;;;;;4194958;28;20659;-69
2022/05/12 06:51:11;;;;;;;4.50;2.60;;;17.50;58.10;;;;;;4195029;28;20202;-69
2022/05/12 06:53:11;;;;;;;2.80;2.37;;;17.50;58.00;;;;;;4195114;28;20688;-69
2022/05/12 06:55:12;;;;;;;7.73;2.70;;;17.40;58.20;;;;;;4194740;28;20192;-69
2022/05/12 06:57:21;;;;;;;3.87;2.50;;;17.40;58.20;;;;;;4194694;28;20184;-69
2022/05/12 06:59:21;;;;;;;5.87;2.07;;;17.50;58.50;;;;;;4194914;28;20182;-69
2022/05/12 07:01:23;;;;;;;4.23;2.90;;;17.50;57.90;;;;;;4195132;28;20286;-69
2022/05/12 07:03:23;;;;;;;8.50;2.90;;;17.60;58.20;;;;;;4193301;28;20180;-69
2022/05/12 07:05:27;;;;;;;6.83;2.70;;;17.80;57.50;;;;;;4194353;28;21000;-69
2022/05/12 07:07:28;;;;;;;2.50;2.30;;;17.80;57.00;;;;;;4194633;28;20207;-69
2022/05/12 07:09:30;;;;;;;5.23;2.80;;;17.90;57.90;;;;;;4194957;28;20894;-69
2022/05/12 07:11:31;;;;;;;7.20;2.57;;;18.10;57.70;;;;;;4195078;28;20194;-69
2022/05/12 07:13:31;;;;;;;3.30;2.40;;;18.30;56.80;;;;;;4194930;28;20258;-69
2022/05/12 07:15:32;;;;;;;5.20;2.67;;;18.40;56.90;;;;;;4194362;28;20199;-69
2022/05/12 07:17:33;;;;;;;5.90;3.33;;;18.40;56.80;;;;;;4194951;28;20175;-69
2022/05/12 07:19:33;;;;;;;7.60;3.00;;;18.60;56.50;;;;;;4195008;28;20533;-69
2022/05/12 07:28:33;;;;;;;4.80;2.50;;;18.60;55.40;;;;;;4194732;28;20167;-69
2022/05/12 07:31:00;;;;;;;4.63;2.70;;;18.80;55.20;;;;;;4194817;28;20198;-70
2022/05/12 07:32:54;;;;;;;2.80;2.20;;;18.80;55.10;;;;;;4195866;28;20772;-70
2022/05/12 07:34:56;;;;;;;5.13;2.80;;;18.70;56.10;;;;;;4194795;28;20254;-70
2022/05/12 07:36:57;;;;;;;4.23;2.60;;;18.30;56.50;;;;;;4194520;28;20187;-70
2022/05/12 07:38:57;;;;;;;4.70;2.60;;;18.20;56.90;;;;;;4194933;28;20180;-70
2022/05/12 07:40:58;;;;;;;4.23;2.57;;;18.10;56.30;;;;;;4195161;28;20678;-70
2022/05/12 07:42:59;;;;;;;4.03;2.70;;;18.10;56.80;;;;;;4195098;28;20218;-69
2022/05/12 07:44:59;;;;;;;4.10;2.47;;;18.10;56.70;;;;;;4194589;28;20183;-70
2022/05/12 07:47:03;;;;;;;6.57;2.60;;;18.10;56.40;;;;;;4194277;28;20674;-70
2022/05/12 07:49:04;;;;;;;7.43;3.10;;;18.10;56.80;;;;;;4194510;28;20558;-70
2022/05/12 07:51:05;;;;;;;8.00;2.83;;;18.40;56.90;;;;;;4194720;28;20192;-70
2022/05/12 07:53:07;;;;;;;5.10;2.70;;;18.50;55.70;;;;;;4193496;28;20184;-70
2022/05/12 07:55:08;;;;;;;4.50;2.53;;;18.70;55.40;;;;;;4194408;28;20183;-70
2022/05/12 07:57:09;;;;;;;5.07;2.43;;;18.70;55.80;;;;;;4194465;28;20220;-70
2022/05/12 07:59:09;;;;;;;3.23;2.60;;;18.90;55.50;;;;;;4194594;28;20179;-70
2022/05/12 08:01:12;;;;;;;9.17;3.67;;;18.80;54.50;;;;;;4194690;28;20208;-69
2022/05/12 08:03:12;;;;;;;6.80;3.07;;;18.70;55.40;;;;;;4194768;28;20711;-70
2022/05/12 08:05:13;;;;;;;4.97;3.10;;;18.60;55.90;;;;;;4194778;28;20187;-70
2022/05/12 08:07:13;;;;;;;6.63;3.20;;;18.40;56.50;;;;;;4194269;28;20249;-70
2022/05/12 08:09:15;;;;;;;4.93;3.20;;;18.60;56.20;;;;;;4194776;28;20180;-70
2022/05/12 08:11:16;;;;;;;6.87;3.80;;;18.50;56.00;;;;;;4194762;28;20647;-69
2022/05/12 08:13:17;;;;;;;7.17;3.27;;;18.40;56.90;;;;;;4194575;28;20677;-70
2022/05/12 08:15:18;;;;;;;7.30;3.23;;;18.50;56.50;;;;;;4194416;28;20168;-70
2022/05/12 08:17:19;;;;;;;5.17;2.87;;;18.60;55.60;;;;;;4194066;28;20325;-69
2022/05/12 08:19:19;;;;;;;6.07;3.27;;;18.70;55.80;;;;;;4195177;28;20194;-69
2022/05/12 08:21:24;;;;;;;4.57;2.67;;;18.70;55.90;;;;;;4197166;28;20219;-70
2022/05/12 08:23:25;;;;;;;5.63;3.50;;;19.20;55.40;;;;;;4196906;28;20218;-70
2022/05/12 08:25:26;;;;;;;6.53;3.30;;;19.40;53.80;;;;;;4196919;28;20184;-70
2022/05/12 08:27:26;;;;;;;7.13;3.60;;;19.40;54.50;;;;;;4197329;28;20318;-71
2022/05/12 08:29:27;;;;;;;5.87;2.77;;;19.10;54.50;;;;;;4197559;28;20171;-70
2022/05/12 08:31:30;;;;;;;8.07;2.97;;;18.60;55.70;;;;;;4197631;28;20187;-70
2022/05/12 08:33:30;;;;;;;5.10;3.10;;;18.70;56.30;;;;;;4196960;28;20254;-70
2022/05/12 08:35:31;;;;;;;5.93;3.20;;;18.70;56.30;;;;;;4196584;28;20182;-70
2022/05/12 08:37:32;;;;;;;10.37;3.30;;;18.90;56.40;;;;;;4197057;28;20187;-70
2022/05/12 08:39:32;;;;;;;5.83;2.90;;;19.00;55.90;;;;;;4197044;28;20198;-69
2022/05/12 08:41:42;;;;;;;6.93;3.20;;;18.90;55.50;;;;;;4197208;28;20195;-70
2022/05/12 08:43:59;;;;;;;6.23;3.23;;;18.90;55.80;;;;;;4197064;28;20541;-70
2022/05/12 08:46:07;;;;;;;5.47;3.10;;;19.00;55.70;;;;;;4195172;28;20199;-70
2022/05/12 08:48:12;;;;;;;4.83;3.30;;;19.20;55.70;;;;;;4197250;28;20251;-70
2022/05/12 08:50:22;;;;;;;5.43;3.03;;;18.80;56.70;;;;;;4197114;28;20198;-70
2022/05/12 08:52:48;;;;;;;4.10;3.30;;;18.90;56.30;;;;;;4197190;28;20706;-69
2022/05/12 08:55:14;;;;;;;4.57;2.80;;;18.80;56.50;;;;;;4196820;28;20535;-70
2022/05/12 08:57:34;;;;;;;6.60;3.10;;;18.80;56.40;;;;;;4196823;28;20479;-70
2022/05/12 08:59:37;;;;;;;6.37;2.93;;;19.30;58.00;;;;;;4196181;28;20199;-70
2022/05/12 09:02:12;;;;;;;4.43;3.10;;;19.60;54.80;;;;;;4196717;28;20192;-70
2022/05/12 09:04:35;;;;;;;5.00;3.10;;;19.90;53.50;;;;;;4195511;28;20199;-69
2022/05/12 09:06:44;;;;;;;7.20;3.20;;;20.00;54.00;;;;;;4195942;28;20662;-70
2022/05/12 09:09:00;;;;;;;4.90;3.30;;;20.00;54.40;;;;;;4196649;28;20182;-70
2022/05/12 09:11:09;;;;;;;12.47;3.40;;;20.20;53.30;;;;;;4196739;28;20199;-68
2022/05/12 09:13:21;;;;;;;7.30;3.40;;;19.90;53.60;;;;;;4196610;28;20183;-70
2022/05/12 09:15:26;;;;;;;9.53;3.73;;;19.90;54.10;;;;;;4196062;28;20156;-70
2022/05/12 09:17:41;;;;;;;5.33;3.33;;;19.80;54.40;;;;;;4196517;28;20230;-70
2022/05/12 09:19:41;;;;;;;7.80;3.07;;;19.80;54.10;;;;;;4196614;28;20208;-70
2022/05/12 09:21:42;;;;;;;5.27;3.27;;;19.90;55.40;;;;;;4196269;28;20713;-70
2022/05/12 09:23:43;;;;;;;9.87;3.80;;;19.90;54.10;;;;;;4196382;28;20180;-70
2022/05/12 09:25:47;;;;;;;5.20;3.27;;;20.00;54.00;;;;;;4195725;28;20183;-70
2022/05/12 09:27:48;;;;;;;7.67;3.80;;;19.90;54.10;;;;;;4196208;28;20176;-69
2022/05/12 09:29:50;;;;;;;6.60;3.53;;;20.10;54.30;;;;;;4196294;28;20187;-69
2022/05/12 09:32:14;;;;;;;6.30;3.50;;;20.20;54.00;;;;;;4196414;28;20179;-70
2022/05/12 09:34:26;;;;;;;5.93;3.73;;;20.40;53.70;;;;;;4196283;28;20192;-70
2022/05/12 09:36:28;;;;;;;5.57;3.20;;;20.60;53.00;;;;;;4195460;28;20272;-70
2022/05/12 09:38:29;;;;;;;3.90;2.90;;;20.90;51.90;;;;;;4194804;28;20210;-70
2022/05/12 09:40:36;;;;;;;5.93;3.60;;;20.70;51.80;;;;;;4196418;28;20203;-70
2022/05/12 09:42:41;;;;;;;3.93;3.17;;;20.40;53.20;;;;;;4196331;28;20164;-70
2022/05/12 09:44:53;;;;;;;6.60;3.37;;;20.60;53.20;;;;;;4196268;28;20199;-70
2022/05/12 09:46:58;;;;;;;4.83;3.60;;;20.80;51.90;;;;;;4195556;28;20668;-70
2022/05/12 09:49:18;;;;;;;6.07;3.50;;;20.90;52.10;;;;;;4195979;28;20172;-70
2022/05/12 09:51:32;;;;;;;8.63;3.47;;;21.10;51.20;;;;;;4196005;28;20199;-70
2022/05/12 09:53:33;;;;;;;6.17;3.70;;;21.20;52.80;;;;;;4196043;28;20192;-70
2022/05/12 09:55:56;;;;;;;5.00;3.77;;;21.20;51.40;;;;;;4195585;28;20643;-70
2022/05/12 09:58:02;;;;;;;5.47;3.90;;;21.10;50.90;;;;;;4196368;28;20164;-70
2022/05/12 10:00:07;;;;;;;6.07;3.80;;;21.40;51.50;;;;;;4195799;28;20172;-70
2022/05/12 10:09:32;;;;;;;8.40;4.73;;;21.40;51.50;;;;;;4195924;28;20183;-70
2022/05/12 10:12:06;;;;;;;8.33;4.67;;;21.60;50.90;;;;;;4195543;28;20191;-70
2022/05/12 10:14:15;;;;;;;5.90;3.40;;;21.70;50.60;;;;;;4195622;28;20195;-70
2022/05/12 10:16:20;;;;;;;5.93;3.80;;;21.80;50.70;;;;;;4195007;28;20786;-70
2022/05/12 10:18:28;;;;;;;4.30;3.87;;;21.70;50.00;;;;;;4195356;28;20680;-70
2022/05/12 10:20:29;;;;;;;6.50;4.30;;;21.80;50.60;;;;;;4195747;28;20207;-70
2022/05/12 10:22:44;;;;;;;5.10;3.83;;;21.90;49.70;;;;;;4195703;28;20203;-70
2022/05/12 10:24:45;;;;;;;5.43;3.90;;;21.80;49.90;;;;;;4195869;28;20172;-70
2022/05/12 10:26:56;;;;;;;5.43;4.33;;;22.10;50.90;;;;;;4195074;28;20232;-70
2022/05/12 10:29:09;;;;;;;6.03;4.07;;;21.70;50.50;;;;;;4194040;28;20214;-70
2022/05/12 10:31:29;;;;;;;7.03;3.77;;;22.10;49.80;;;;;;4195405;28;20195;-70
2022/05/12 10:34:00;;;;;;;6.80;4.23;;;22.50;48.70;;;;;;4195351;28;20209;-70
2022/05/12 10:36:36;;;;;;;5.13;3.90;;;23.10;46.60;;;;;;4194814;28;20180;-70
2022/05/12 10:39:08;;;;;;;10.80;4.10;;;24.10;44.00;;;;;;4195246;28;20213;-70
2022/05/12 10:41:20;;;;;;;4.50;3.60;;;24.10;43.20;;;;;;4195251;28;20203;-70
2022/05/12 10:43:39;;;;;;;5.77;4.20;;;23.80;44.30;;;;;;4194645;28;20663;-70
2022/05/12 10:45:48;;;;;;;4.73;3.77;;;23.70;44.20;;;;;;4194654;28;20156;-69
2022/05/12 10:48:07;;;;;;;4.53;4.03;;;23.50;44.40;;;;;;4195163;28;20182;-69
2022/05/12 10:50:27;;;;;;;4.53;3.67;;;24.40;42.50;;;;;;4194933;28;20175;-69
2022/05/12 10:52:37;;;;;;;5.23;4.03;;;24.50;43.30;;;;;;4195220;28;20684;-69
2022/05/12 10:55:12;;;;;;;6.93;4.07;;;24.00;43.10;;;;;;4195086;28;20159;-69
2022/05/12 10:57:39;;;;;;;4.87;4.47;;;24.50;43.10;;;;;;4194708;28;20183;-69
2022/05/12 11:00:22;;;;;;;4.80;4.17;;;23.80;43.60;;;;;;4191337;28;20740;-69
2022/05/12 11:02:39;;;;;;;5.27;4.10;;;23.80;44.40;;;;;;4195041;28;20168;-69
2022/05/12 11:04:44;;;;;;;6.73;5.07;;;24.10;43.80;;;;;;4195163;28;20164;-69